createdAt,value
2023-06-23T00:00:29.214Z,79.36
2023-06-23T00:03:17.079Z,79.38
2023-06-23T00:05:45.312Z,79.39
2023-06-23T00:08:13.301Z,79.40
2023-06-23T00:10:41.258Z,79.45
2023-06-23T00:13:10.558Z,79.51
2023-06-23T00:15:38.653Z,79.30
2023-06-23T00:18:06.893Z,79.24
2023-06-23T00:20:34.794Z,79.35
2023-06-23T00:23:03.350Z,79.37
2023-06-23T00:25:31.575Z,79.13
2023-06-23T00:28:01.333Z,79.05
2023-06-23T00:30:29.295Z,79.11
2023-06-23T00:32:57.348Z,79.05
2023-06-23T00:35:25.437Z,78.96
2023-06-23T00:37:54.844Z,78.70
2023-06-23T00:40:24.962Z,78.79
2023-06-23T00:42:56.203Z,78.74
2023-06-23T00:45:25.193Z,78.81
2023-06-23T00:47:54.035Z,78.86
2023-06-23T00:50:23.195Z,78.76
2023-06-23T00:52:53.613Z,78.74
2023-06-23T00:55:23.311Z,78.63
2023-06-23T00:57:53.949Z,78.59
2023-06-23T01:00:23.404Z,78.67
2023-06-23T01:02:56.915Z,78.52
2023-06-23T01:05:36.680Z,78.35
2023-06-23T01:08:43.647Z,78.31
2023-06-23T01:11:29.846Z,78.15
2023-06-23T01:14:08.294Z,77.88
2023-06-23T01:16:52.071Z,77.78
2023-06-23T01:19:54.437Z,77.68
2023-06-23T01:22:38.079Z,77.78
2023-06-23T01:25:12.769Z,77.64
2023-06-23T01:28:12.210Z,77.52
2023-06-23T01:30:44.886Z,77.41
2023-06-23T01:33:19.828Z,77.33
2023-06-23T01:35:55.807Z,77.30
2023-06-23T01:38:30.910Z,77.59
2023-06-23T01:41:01.638Z,77.60
2023-06-23T01:43:31.160Z,77.54
2023-06-23T01:46:16.985Z,77.43
2023-06-23T01:48:50.064Z,77.26
2023-06-23T01:51:20.336Z,77.26
2023-06-23T01:53:51.078Z,77.35
2023-06-23T01:56:20.895Z,77.33
2023-06-23T01:58:50.526Z,77.41
2023-06-23T02:01:20.136Z,77.46
2023-06-23T02:03:50.097Z,77.59
2023-06-23T02:06:20.128Z,77.70
2023-06-23T02:08:49.614Z,77.83
2023-06-23T02:11:20.065Z,77.90
2023-06-23T02:13:48.644Z,77.73
2023-06-23T02:16:17.477Z,77.64
2023-06-23T02:18:47.253Z,77.80
2023-06-23T02:21:16.467Z,77.88
2023-06-23T02:23:45.223Z,77.98
2023-06-23T02:26:13.855Z,78.18
2023-06-23T02:28:42.695Z,78.23
2023-06-23T02:31:11.276Z,78.22
2023-06-23T02:33:39.862Z,78.23
2023-06-23T02:36:10.793Z,78.28
2023-06-23T02:38:40.407Z,78.34
2023-06-23T02:41:10.159Z,78.24
2023-06-23T02:43:45.864Z,78.29
2023-06-23T02:46:17.774Z,78.33
2023-06-23T02:48:50.818Z,78.37
2023-06-23T02:51:22.987Z,78.47
2023-06-23T02:54:05.544Z,78.54
2023-06-23T02:56:37.558Z,78.67
2023-06-23T02:59:07.683Z,78.54
2023-06-23T03:01:40.607Z,78.57
2023-06-23T03:04:08.585Z,78.34
2023-06-23T03:06:36.977Z,78.44
2023-06-23T03:09:05.161Z,78.31
2023-06-23T03:11:34.276Z,78.27
2023-06-23T03:14:02.347Z,78.20
2023-06-23T03:16:44.442Z,78.25
2023-06-23T03:19:15.275Z,78.56
2023-06-23T03:21:46.846Z,78.40
2023-06-23T03:24:15.480Z,78.30
2023-06-23T03:26:48.475Z,78.17
2023-06-23T03:29:18.825Z,78.16
2023-06-23T03:31:48.531Z,77.96
2023-06-23T03:34:18.860Z,77.84
2023-06-23T03:36:48.670Z,77.76
2023-06-23T03:39:24.953Z,77.61
2023-06-23T03:41:53.221Z,77.58
2023-06-23T03:44:26.906Z,77.62
2023-06-23T03:47:10.954Z,77.53
2023-06-23T03:49:45.678Z,77.30
2023-06-23T03:52:15.931Z,77.25
2023-06-23T03:54:46.117Z,77.26
2023-06-23T03:57:21.260Z,77.03
2023-06-23T03:59:51.985Z,76.96
2023-06-23T04:02:22.204Z,76.74
2023-06-23T04:04:54.274Z,76.33
2023-06-23T04:07:25.625Z,76.06
2023-06-23T04:09:55.108Z,76.03
2023-06-23T04:12:24.554Z,75.94
2023-06-23T04:14:54.440Z,75.61
2023-06-23T04:17:25.594Z,75.49
2023-06-23T04:19:58.235Z,75.42
2023-06-23T04:22:29.049Z,75.11
2023-06-23T04:24:59.552Z,74.79
2023-06-23T04:27:30.524Z,74.47
2023-06-23T04:30:00.491Z,74.30
2023-06-23T04:32:28.983Z,73.78
2023-06-23T04:34:56.886Z,73.60
2023-06-23T04:37:40.816Z,73.02
2023-06-23T04:40:48.683Z,72.26
2023-06-23T04:43:21.289Z,72.09
2023-06-23T04:45:59.612Z,72.01
2023-06-23T04:48:36.654Z,71.78
2023-06-23T04:51:07.631Z,71.41
2023-06-23T04:53:44.566Z,71.10
2023-06-23T04:56:17.449Z,71.11
2023-06-23T04:58:51.573Z,70.69
2023-06-23T05:01:21.545Z,70.54
2023-06-23T05:03:51.441Z,70.44
2023-06-23T05:06:21.610Z,70.25
2023-06-23T05:08:52.151Z,70.27
2023-06-23T05:11:21.973Z,69.96
2023-06-23T05:13:52.605Z,69.71
2023-06-23T05:16:22.970Z,69.96
2023-06-23T05:18:52.430Z,69.24
2023-06-23T05:21:23.197Z,68.73
2023-06-23T05:23:54.145Z,68.29
2023-06-23T05:26:24.222Z,67.59
2023-06-23T05:28:55.600Z,68.12
2023-06-23T05:31:25.853Z,68.17
2023-06-23T05:33:56.898Z,67.43
2023-06-23T05:36:25.519Z,67.33
2023-06-23T05:38:55.868Z,66.85
2023-06-23T05:41:23.955Z,66.86
2023-06-23T05:43:51.909Z,66.60
2023-06-23T05:46:24.783Z,66.90
2023-06-23T05:48:54.899Z,65.99
2023-06-23T05:51:27.127Z,66.17
2023-06-23T05:53:59.450Z,66.28
2023-06-23T05:56:32.411Z,66.48
2023-06-23T05:59:05.178Z,66.72
2023-06-23T06:01:36.089Z,66.55
2023-06-23T06:04:15.180Z,66.34
2023-06-23T06:06:45.594Z,66.13
2023-06-23T06:09:15.736Z,66.06
2023-06-23T06:11:46.346Z,66.43
2023-06-23T06:14:17.004Z,66.50
2023-06-23T06:16:47.062Z,66.64
2023-06-23T06:19:18.465Z,66.57
2023-06-23T06:21:48.368Z,66.60
2023-06-23T06:24:17.863Z,66.89
2023-06-23T06:26:47.468Z,66.95
2023-06-23T06:29:19.140Z,66.76
2023-06-23T06:31:49.179Z,67.03
2023-06-23T06:34:19.248Z,67.14
2023-06-23T06:36:48.104Z,67.31
2023-06-23T06:39:16.903Z,67.31
2023-06-23T06:41:46.341Z,67.38
2023-06-23T06:44:14.311Z,67.57
2023-06-23T06:46:44.697Z,67.70
2023-06-23T06:49:15.589Z,67.90
2023-06-23T06:51:45.378Z,68.17
2023-06-23T06:54:14.445Z,68.20
2023-06-23T06:56:43.232Z,68.16
2023-06-23T06:59:11.331Z,68.22
2023-06-23T07:01:41.067Z,68.35
2023-06-23T07:04:09.797Z,68.71
2023-06-23T07:06:38.621Z,68.73
2023-06-23T07:09:06.688Z,68.89
2023-06-23T07:11:34.879Z,68.97
2023-06-23T07:14:04.832Z,68.98
2023-06-23T07:16:34.992Z,69.50
2023-06-23T07:19:03.066Z,69.59
2023-06-23T07:21:31.141Z,69.37
2023-06-23T07:23:59.300Z,69.67
2023-06-23T07:26:27.401Z,70.12
2023-06-23T07:28:55.960Z,70.22
2023-06-23T07:31:27.020Z,70.89
2023-06-23T07:33:55.068Z,71.63
2023-06-23T07:36:23.248Z,71.82
2023-06-23T07:38:51.106Z,71.72
2023-06-23T07:41:19.170Z,72.37
2023-06-23T07:43:47.045Z,73.56
2023-06-23T07:46:15.027Z,73.57
2023-06-23T07:48:43.392Z,73.78
2023-06-23T07:51:11.271Z,74.11
2023-06-23T07:53:39.433Z,75.47
2023-06-23T07:56:07.398Z,76.12
2023-06-23T07:58:35.337Z,76.86
2023-06-23T08:01:04.152Z,77.57
2023-06-23T08:03:32.299Z,78.35
2023-06-23T08:06:00.594Z,78.58
2023-06-23T08:08:28.580Z,79.58
2023-06-23T08:10:56.769Z,80.49
2023-06-23T08:13:24.865Z,81.06
2023-06-23T08:15:53.224Z,80.69
2023-06-23T08:18:21.487Z,80.59
2023-06-23T08:20:50.645Z,82.14
2023-06-23T08:23:18.693Z,82.21
2023-06-23T08:25:46.736Z,82.07
2023-06-23T08:28:14.807Z,82.50
2023-06-23T08:30:42.970Z,83.01
2023-06-23T08:33:11.494Z,83.95
2023-06-23T08:35:39.803Z,83.84
2023-06-23T08:38:07.827Z,85.04
2023-06-23T08:40:36.083Z,84.80
2023-06-23T08:43:04.267Z,85.51
2023-06-23T08:45:35.098Z,86.15
2023-06-23T08:48:04.635Z,86.73
2023-06-23T08:50:34.199Z,86.61
2023-06-23T08:53:05.746Z,86.82
2023-06-23T08:55:34.684Z,87.10
2023-06-23T08:58:03.322Z,86.63
2023-06-23T09:00:31.719Z,86.92
2023-06-23T09:02:59.977Z,87.15
2023-06-23T09:05:28.140Z,87.07
2023-06-23T09:07:56.283Z,87.14
2023-06-23T09:10:26.165Z,86.60
2023-06-23T09:13:15.826Z,86.72
2023-06-23T09:16:00.198Z,86.46
2023-06-23T09:18:34.795Z,85.81
2023-06-23T09:21:04.237Z,87.11
2023-06-23T09:23:33.317Z,85.31
2023-06-23T09:26:05.580Z,85.47
2023-06-23T09:28:38.397Z,85.76
2023-06-23T09:31:17.298Z,86.10
2023-06-23T09:33:52.831Z,86.09
2023-06-23T09:36:21.944Z,86.52
2023-06-23T09:38:50.759Z,86.21
2023-06-23T09:41:19.402Z,86.25
2023-06-23T09:43:54.664Z,86.34
2023-06-23T09:46:24.155Z,86.02
2023-06-23T09:48:52.649Z,86.26
2023-06-23T09:51:21.709Z,86.70
2023-06-23T09:53:52.258Z,87.79
2023-06-23T09:56:22.675Z,86.73
2023-06-23T09:58:51.223Z,86.88
2023-06-23T10:01:21.361Z,86.59
2023-06-23T10:03:55.387Z,87.05
2023-06-23T10:06:28.455Z,87.50
2023-06-23T10:08:57.960Z,87.64
2023-06-23T10:11:44.704Z,87.53
2023-06-23T10:14:13.055Z,86.60
2023-06-23T10:16:45.799Z,86.40
2023-06-23T10:19:14.335Z,85.97
2023-06-23T10:21:44.288Z,86.82
2023-06-23T10:24:18.588Z,85.68
2023-06-23T10:26:48.067Z,85.90
2023-06-23T10:29:19.716Z,86.17
2023-06-23T10:31:50.588Z,85.53
2023-06-23T10:34:20.282Z,85.46
2023-06-23T10:36:53.062Z,84.62
2023-06-23T10:39:22.707Z,84.51
2023-06-23T10:41:54.286Z,84.68
2023-06-23T10:44:23.929Z,84.18
2023-06-23T10:46:52.310Z,84.05
2023-06-23T10:49:22.776Z,84.01
2023-06-23T10:51:52.748Z,83.92
2023-06-23T10:54:27.675Z,83.59
2023-06-23T10:56:56.231Z,83.24
2023-06-23T10:59:31.015Z,83.54
2023-06-23T11:02:02.155Z,83.28
2023-06-23T11:04:35.107Z,82.72
2023-06-23T11:07:09.131Z,81.90
2023-06-23T11:10:03.725Z,80.82
2023-06-23T11:12:40.563Z,79.87
2023-06-23T11:15:32.030Z,79.63
2023-06-23T11:18:06.690Z,79.22
2023-06-23T11:20:36.593Z,76.32
2023-06-23T11:23:12.767Z,78.08
2023-06-23T11:25:48.892Z,77.08
2023-06-23T11:28:26.405Z,76.95
2023-06-23T11:31:04.775Z,76.36
2023-06-23T11:33:34.857Z,76.79
2023-06-23T11:36:06.200Z,76.80
2023-06-23T11:38:35.395Z,74.83
2023-06-23T11:41:04.261Z,74.86
2023-06-23T11:43:33.824Z,75.15
2023-06-23T11:46:09.716Z,75.08
2023-06-23T11:48:38.218Z,73.62
2023-06-23T11:51:07.974Z,74.03
2023-06-23T11:53:37.307Z,74.02
2023-06-23T11:56:05.935Z,72.70
2023-06-23T11:58:35.190Z,70.83
2023-06-23T12:01:03.429Z,70.94
2023-06-23T12:03:33.021Z,71.86
2023-06-23T12:06:01.040Z,72.65
2023-06-23T12:08:29.524Z,71.84
2023-06-23T12:10:57.427Z,71.89
2023-06-23T12:13:25.669Z,70.36
2023-06-23T12:15:58.292Z,70.01
2023-06-23T12:18:27.262Z,71.70
2023-06-23T12:20:55.217Z,68.82
2023-06-23T12:23:23.275Z,70.69
2023-06-23T12:25:51.349Z,69.92
2023-06-23T12:28:20.617Z,69.97
2023-06-23T12:30:51.776Z,70.23
2023-06-23T12:33:24.773Z,69.76
2023-06-23T12:35:57.573Z,69.81
2023-06-23T12:38:25.694Z,69.01
2023-06-23T12:40:54.290Z,69.26
2023-06-23T12:43:23.388Z,68.92
2023-06-23T12:45:55.045Z,68.22
2023-06-23T12:48:24.408Z,67.91
2023-06-23T12:50:56.328Z,67.33
2023-06-23T12:53:24.402Z,66.20
2023-06-23T12:55:52.364Z,66.19
2023-06-23T12:58:20.349Z,65.96
2023-06-23T13:00:48.297Z,65.64
2023-06-23T13:03:18.691Z,64.91
2023-06-23T13:05:49.397Z,66.00
2023-06-23T13:08:18.682Z,65.53
2023-06-23T13:10:46.518Z,65.57
2023-06-23T13:13:14.638Z,65.76
2023-06-23T13:15:43.884Z,65.82
2023-06-23T13:18:12.056Z,65.97
2023-06-23T13:20:39.940Z,66.04
2023-06-23T13:23:07.993Z,65.89
2023-06-23T13:25:36.439Z,65.88
2023-06-23T13:28:05.127Z,66.19
2023-06-23T13:30:33.128Z,66.15
2023-06-23T13:33:01.260Z,66.15
2023-06-23T13:35:29.726Z,66.14
2023-06-23T13:37:59.025Z,66.02
2023-06-23T13:40:27.696Z,66.27
2023-06-23T13:42:55.834Z,67.08
2023-06-23T13:45:24.222Z,66.69
2023-06-23T13:47:52.500Z,67.45
2023-06-23T13:50:20.524Z,67.61
2023-06-23T13:52:48.526Z,67.37
2023-06-23T13:55:17.040Z,68.12
2023-06-23T13:57:46.181Z,68.18
2023-06-23T14:00:15.862Z,68.78
2023-06-23T14:02:44.229Z,69.04
2023-06-23T14:05:15.482Z,68.38
2023-06-23T14:07:43.628Z,68.58
2023-06-23T14:10:12.125Z,68.82
2023-06-23T14:12:40.170Z,68.25
2023-06-23T14:15:08.598Z,68.54
2023-06-23T14:17:37.019Z,68.83
2023-06-23T14:20:06.083Z,69.47
2023-06-23T14:22:34.285Z,69.90
2023-06-23T14:25:02.411Z,70.05
2023-06-23T14:27:30.673Z,69.92
2023-06-23T14:29:58.808Z,70.15
2023-06-23T14:32:27.095Z,69.82
2023-06-23T14:34:55.557Z,70.15
2023-06-23T14:37:23.520Z,70.19
2023-06-23T14:39:51.442Z,69.82
2023-06-23T14:42:19.494Z,68.63
2023-06-23T14:44:47.425Z,68.68
2023-06-23T14:47:15.294Z,68.79
2023-06-23T14:49:43.159Z,68.75
2023-06-23T14:52:11.325Z,68.58
2023-06-23T14:54:39.602Z,68.29
2023-06-23T14:57:07.598Z,68.44
2023-06-23T14:59:35.646Z,68.31
2023-06-23T15:02:04.416Z,68.77
2023-06-23T15:04:33.016Z,68.73
2023-06-23T15:07:01.135Z,68.53
2023-06-23T15:09:29.497Z,68.37
2023-06-23T15:11:57.733Z,68.57
2023-06-23T15:14:26.112Z,68.66
2023-06-23T15:16:54.182Z,68.18
2023-06-23T15:19:22.865Z,68.38
2023-06-23T15:21:52.370Z,68.48
2023-06-23T15:24:20.540Z,68.46
2023-06-23T15:26:48.408Z,68.55
2023-06-23T15:29:16.204Z,68.51
2023-06-23T15:31:45.383Z,68.20
2023-06-23T15:34:13.432Z,68.19
2023-06-23T15:36:41.510Z,68.40
2023-06-23T15:39:09.406Z,68.67
2023-06-23T15:41:38.373Z,68.70
2023-06-23T15:44:06.543Z,68.45
2023-06-23T15:46:34.813Z,68.97
2023-06-23T15:49:02.886Z,68.88
2023-06-23T15:51:30.999Z,68.85
2023-06-23T15:53:59.336Z,69.06
2023-06-23T15:56:27.784Z,69.30
2023-06-23T15:58:55.681Z,69.68
2023-06-23T16:01:24.773Z,69.77
2023-06-23T16:03:53.212Z,69.71
2023-06-23T16:06:21.858Z,69.67
2023-06-23T16:08:49.916Z,69.04
2023-06-23T16:11:18.081Z,68.93
2023-06-23T16:13:46.251Z,69.17
2023-06-23T16:16:14.835Z,69.42
2023-06-23T16:18:42.889Z,69.34
2023-06-23T16:21:10.896Z,69.34
2023-06-23T16:23:38.770Z,69.29
2023-06-23T16:26:06.823Z,69.19
2023-06-23T16:28:34.675Z,69.33
2023-06-23T16:31:02.582Z,69.20
2023-06-23T16:33:30.527Z,69.12
2023-06-23T16:35:58.389Z,69.03
2023-06-23T16:38:26.281Z,69.05
2023-06-23T16:40:54.225Z,69.26
2023-06-23T16:43:22.287Z,69.61
2023-06-23T16:45:50.255Z,69.08
2023-06-23T16:48:18.227Z,68.86
2023-06-23T16:50:46.838Z,69.49
2023-06-23T16:53:14.884Z,69.61
2023-06-23T16:55:42.842Z,69.86
2023-06-23T16:58:10.823Z,69.68
2023-06-23T17:00:38.819Z,69.60
2023-06-23T17:03:08.673Z,69.86
2023-06-23T17:05:38.525Z,69.97
2023-06-23T17:08:07.666Z,70.69
2023-06-23T17:10:35.787Z,70.83
2023-06-23T17:13:03.702Z,70.54
2023-06-23T17:15:31.788Z,71.01
2023-06-23T17:17:59.816Z,70.87
2023-06-23T17:20:27.753Z,70.88
2023-06-23T17:22:55.717Z,70.77
2023-06-23T17:25:23.789Z,71.09
2023-06-23T17:27:51.653Z,71.62
2023-06-23T17:30:19.829Z,71.52
2023-06-23T17:32:48.421Z,72.16
2023-06-23T17:35:16.378Z,72.31
2023-06-23T17:37:44.243Z,72.28
2023-06-23T17:40:13.378Z,72.41
2023-06-23T17:42:41.310Z,72.96
2023-06-23T17:45:10.180Z,72.89
2023-06-23T17:47:38.393Z,72.64
2023-06-23T17:50:07.225Z,73.03
2023-06-23T17:52:35.121Z,73.64
2023-06-23T17:55:03.294Z,73.47
2023-06-23T17:57:31.160Z,73.60
2023-06-23T17:59:59.132Z,73.91
2023-06-23T18:02:27.081Z,73.42
2023-06-23T18:04:55.019Z,73.83
2023-06-23T18:07:23.006Z,73.63
2023-06-23T18:09:51.109Z,73.60
2023-06-23T18:12:19.072Z,73.81
2023-06-23T18:14:46.938Z,73.44
2023-06-23T18:17:14.903Z,73.37
2023-06-23T18:19:42.872Z,74.05
2023-06-23T18:22:10.669Z,74.13
2023-06-23T18:24:38.604Z,74.15
2023-06-23T18:27:06.680Z,74.08
2023-06-23T18:29:34.556Z,74.00
2023-06-23T18:32:13.976Z,73.74
2023-06-23T18:34:42.970Z,73.37
2023-06-23T18:37:11.264Z,72.83
2023-06-23T18:39:39.225Z,72.85
2023-06-23T18:42:08.078Z,72.57
2023-06-23T18:44:36.485Z,71.49
2023-06-23T18:47:04.776Z,71.52
2023-06-23T18:49:32.743Z,71.14
2023-06-23T18:52:00.702Z,70.75
2023-06-23T18:54:28.688Z,70.33
2023-06-23T18:56:59.501Z,69.82
2023-06-23T18:59:28.017Z,70.20
2023-06-23T19:01:55.957Z,68.78
2023-06-23T19:04:24.014Z,69.49
2023-06-23T19:06:52.122Z,69.17
2023-06-23T19:09:23.126Z,68.56
2023-06-23T19:11:53.859Z,68.73
2023-06-23T19:14:21.852Z,68.04
2023-06-23T19:16:49.796Z,67.91
2023-06-23T19:19:18.407Z,68.38
2023-06-23T19:21:46.446Z,68.12
2023-06-23T19:24:14.514Z,68.18
2023-06-23T19:26:42.891Z,67.79
2023-06-23T19:29:10.889Z,67.88
2023-06-23T19:31:38.800Z,68.68
2023-06-23T19:34:07.825Z,68.25
2023-06-23T19:36:35.727Z,68.12
2023-06-23T19:39:05.197Z,68.16
2023-06-23T19:41:33.207Z,68.20
2023-06-23T19:44:01.245Z,68.54
2023-06-23T19:46:29.237Z,67.92
2023-06-23T19:48:57.890Z,68.33
2023-06-23T19:51:26.323Z,68.42
2023-06-23T19:53:54.332Z,68.48
2023-06-23T19:56:22.610Z,68.12
2023-06-23T19:58:54.391Z,68.45
2023-06-23T20:01:22.585Z,68.23
2023-06-23T20:03:51.017Z,67.53
2023-06-23T20:06:21.033Z,67.31
2023-06-23T20:08:49.203Z,66.96
2023-06-23T20:11:21.450Z,66.34
2023-06-23T20:13:51.999Z,65.50
2023-06-23T20:16:20.382Z,66.20
2023-06-23T20:18:48.453Z,66.33
2023-06-23T20:21:16.368Z,66.65
2023-06-23T20:23:44.284Z,66.38
2023-06-23T20:26:12.457Z,66.26
2023-06-23T20:28:40.320Z,65.27
2023-06-23T20:31:08.184Z,65.04
2023-06-23T20:33:36.052Z,65.05
2023-06-23T20:36:04.026Z,64.96
2023-06-23T20:38:32.200Z,66.00
2023-06-23T20:41:00.173Z,65.86
2023-06-23T20:43:28.128Z,65.39
2023-06-23T20:45:56.096Z,65.78
2023-06-23T20:48:24.036Z,66.09
2023-06-23T20:50:53.064Z,66.20
2023-06-23T20:53:20.966Z,66.37
2023-06-23T20:55:48.888Z,66.39
2023-06-23T20:58:16.968Z,66.45
2023-06-23T21:00:44.922Z,66.62
2023-06-23T21:03:12.850Z,66.96
2023-06-23T21:05:40.970Z,66.65
2023-06-23T21:08:08.939Z,66.86
2023-06-23T21:10:36.810Z,66.79
2023-06-23T21:13:05.500Z,66.72
2023-06-23T21:15:33.734Z,67.42
2023-06-23T21:18:02.275Z,67.33
2023-06-23T21:20:31.146Z,67.55
2023-06-23T21:22:59.265Z,67.62
2023-06-23T21:25:27.293Z,68.08
2023-06-23T21:27:55.286Z,68.16
2023-06-23T21:30:23.629Z,68.21
2023-06-23T21:32:51.610Z,68.23
2023-06-23T21:35:19.770Z,67.68
2023-06-23T21:37:48.147Z,67.96
2023-06-23T21:40:18.882Z,67.87
2023-06-23T21:42:47.691Z,67.75
2023-06-23T21:45:15.756Z,68.12
2023-06-23T21:47:45.129Z,67.53
2023-06-23T21:50:14.642Z,67.84
2023-06-23T21:52:43.065Z,67.60
2023-06-23T21:55:11.702Z,68.24
2023-06-23T21:57:39.687Z,68.62
2023-06-23T22:00:10.423Z,67.90
2023-06-23T22:02:38.324Z,67.88
2023-06-23T22:05:06.550Z,67.98
2023-06-23T22:07:34.518Z,67.86
2023-06-23T22:10:02.481Z,67.82
2023-06-23T22:12:30.386Z,68.02
2023-06-23T22:14:58.326Z,68.36
2023-06-23T22:17:26.239Z,68.90
2023-06-23T22:19:54.177Z,68.54
2023-06-23T22:22:22.335Z,69.01
2023-06-23T22:24:50.303Z,68.50
2023-06-23T22:27:18.167Z,68.42
2023-06-23T22:29:46.131Z,68.62
2023-06-23T22:32:14.513Z,68.94
2023-06-23T22:34:42.966Z,68.86
2023-06-23T22:37:10.955Z,69.03
2023-06-23T22:39:38.824Z,69.44
2023-06-23T22:42:07.646Z,69.44
2023-06-23T22:44:35.581Z,69.53
2023-06-23T22:47:03.555Z,70.02
2023-06-23T22:49:32.975Z,70.37
2023-06-23T22:52:00.910Z,70.66
2023-06-23T22:54:28.788Z,70.76
2023-06-23T22:56:56.743Z,70.52
2023-06-23T22:59:24.722Z,70.75
2023-06-23T23:01:52.584Z,70.67
2023-06-23T23:04:20.495Z,70.92
2023-06-23T23:06:48.746Z,70.88
2023-06-23T23:09:16.803Z,71.03
2023-06-23T23:11:44.776Z,71.08
2023-06-23T23:14:12.950Z,71.15
2023-06-23T23:16:40.918Z,71.38
2023-06-23T23:19:09.099Z,71.24
2023-06-23T23:21:39.110Z,71.19
2023-06-23T23:24:07.360Z,71.49
2023-06-23T23:26:35.248Z,71.38
2023-06-23T23:29:04.033Z,71.64
2023-06-23T23:31:33.055Z,72.08
2023-06-23T23:34:02.056Z,72.16
2023-06-23T23:36:32.649Z,72.17
2023-06-23T23:39:01.405Z,72.22
2023-06-23T23:41:29.152Z,72.04
2023-06-23T23:43:57.071Z,72.13
2023-06-23T23:46:25.395Z,72.04
2023-06-23T23:48:53.330Z,72.38
2023-06-23T23:51:21.182Z,72.08
2023-06-23T23:53:48.937Z,72.15
2023-06-23T23:56:16.910Z,72.00
2023-06-23T23:58:44.983Z,71.84
